sensor_id;sensor_type;location;lat;lon;timestamp;P1;durP1;ratioP1;P2;durP2;ratioP2
73428;SDS011;61643;49.564;17.412;2023-09-07T00:00:14;8.93;;;5.22;;
73428;SDS011;61643;49.564;17.412;2023-09-07T00:02:41;8.73;;;5.43;;
73428;SDS011;61643;49.564;17.412;2023-09-07T00:05:07;8.68;;;5.03;;
73428;SDS011;61643;49.564;17.412;2023-09-07T00:07:34;7.57;;;5.13;;
73428;SDS011;61643;49.564;17.412;2023-09-07T00:10:00;8.68;;;5.28;;
73428;SDS011;61643;49.564;17.412;2023-09-07T00:12:26;7.05;;;5.13;;
73428;SDS011;61643;49.564;17.412;2023-09-07T00:14:55;8.82;;;5.47;;
73428;SDS011;61643;49.564;17.412;2023-09-07T00:17:23;9.35;;;5.80;;
73428;SDS011;61643;49.564;17.412;2023-09-07T00:19:50;8.77;;;5.90;;
73428;SDS011;61643;49.564;17.412;2023-09-07T00:22:16;9.43;;;5.32;;
73428;SDS011;61643;49.564;17.412;2023-09-07T00:24:43;7.50;;;5.32;;
73428;SDS011;61643;49.564;17.412;2023-09-07T00:27:09;8.88;;;5.50;;
73428;SDS011;61643;49.564;17.412;2023-09-07T00:29:37;8.73;;;5.18;;
73428;SDS011;61643;49.564;17.412;2023-09-07T00:32:04;10.55;;;5.63;;
73428;SDS011;61643;49.564;17.412;2023-09-07T00:34:30;11.45;;;5.72;;
73428;SDS011;61643;49.564;17.412;2023-09-07T00:36:56;7.13;;;5.20;;
73428;SDS011;61643;49.564;17.412;2023-09-07T00:39:23;7.40;;;5.13;;
73428;SDS011;61643;49.564;17.412;2023-09-07T00:41:49;7.25;;;5.43;;
73428;SDS011;61643;49.564;17.412;2023-09-07T00:44:15;8.50;;;5.28;;
73428;SDS011;61643;49.564;17.412;2023-09-07T00:46:41;10.57;;;6.20;;
73428;SDS011;61643;49.564;17.412;2023-09-07T00:49:10;12.27;;;5.95;;
73428;SDS011;61643;49.564;17.412;2023-09-07T00:54:03;23.63;;;9.93;;
73428;SDS011;61643;49.564;17.412;2023-09-07T00:56:29;18.50;;;7.80;;
73428;SDS011;61643;49.564;17.412;2023-09-07T00:58:56;18.13;;;8.23;;
73428;SDS011;61643;49.564;17.412;2023-09-07T01:01:25;18.70;;;8.50;;
73428;SDS011;61643;49.564;17.412;2023-09-07T01:03:51;16.45;;;7.15;;
73428;SDS011;61643;49.564;17.412;2023-09-07T01:06:22;14.68;;;7.13;;
73428;SDS011;61643;49.564;17.412;2023-09-07T01:08:55;13.77;;;6.70;;
73428;SDS011;61643;49.564;17.412;2023-09-07T01:11:26;13.93;;;6.85;;
73428;SDS011;61643;49.564;17.412;2023-09-07T01:13:52;12.27;;;6.25;;
73428;SDS011;61643;49.564;17.412;2023-09-07T01:16:19;12.45;;;6.60;;
73428;SDS011;61643;49.564;17.412;2023-09-07T01:18:47;10.30;;;5.93;;
73428;SDS011;61643;49.564;17.412;2023-09-07T01:21:13;11.82;;;6.40;;
73428;SDS011;61643;49.564;17.412;2023-09-07T01:23:42;10.27;;;5.90;;
73428;SDS011;61643;49.564;17.412;2023-09-07T01:26:10;11.65;;;6.03;;
73428;SDS011;61643;49.564;17.412;2023-09-07T01:28:36;10.23;;;5.80;;
73428;SDS011;61643;49.564;17.412;2023-09-07T01:31:03;12.60;;;6.57;;
73428;SDS011;61643;49.564;17.412;2023-09-07T01:33:30;9.25;;;5.80;;
73428;SDS011;61643;49.564;17.412;2023-09-07T01:35:56;8.38;;;5.75;;
73428;SDS011;61643;49.564;17.412;2023-09-07T01:38:22;9.15;;;5.93;;
73428;SDS011;61643;49.564;17.412;2023-09-07T01:40:48;11.02;;;6.05;;
73428;SDS011;61643;49.564;17.412;2023-09-07T01:43:14;10.02;;;6.25;;
73428;SDS011;61643;49.564;17.412;2023-09-07T01:45:40;9.00;;;5.40;;
73428;SDS011;61643;49.564;17.412;2023-09-07T01:48:08;10.52;;;5.97;;
73428;SDS011;61643;49.564;17.412;2023-09-07T01:50:35;8.10;;;5.18;;
73428;SDS011;61643;49.564;17.412;2023-09-07T01:53:01;8.50;;;5.57;;
73428;SDS011;61643;49.564;17.412;2023-09-07T01:55:30;10.43;;;5.55;;
73428;SDS011;61643;49.564;17.412;2023-09-07T01:57:56;11.38;;;6.25;;
73428;SDS011;61643;49.564;17.412;2023-09-07T02:00:22;11.38;;;6.30;;
73428;SDS011;61643;49.564;17.412;2023-09-07T02:02:48;12.02;;;5.82;;
73428;SDS011;61643;49.564;17.412;2023-09-07T02:05:14;11.68;;;6.15;;
73428;SDS011;61643;49.564;17.412;2023-09-07T02:07:42;11.40;;;6.00;;
73428;SDS011;61643;49.564;17.412;2023-09-07T02:10:08;11.85;;;6.15;;
73428;SDS011;61643;49.564;17.412;2023-09-07T02:12:35;10.95;;;6.22;;
73428;SDS011;61643;49.564;17.412;2023-09-07T02:15:02;13.07;;;6.32;;
73428;SDS011;61643;49.564;17.412;2023-09-07T02:17:30;11.45;;;6.32;;
73428;SDS011;61643;49.564;17.412;2023-09-07T02:19:56;12.73;;;7.10;;
73428;SDS011;61643;49.564;17.412;2023-09-07T02:22:22;14.60;;;6.55;;
73428;SDS011;61643;49.564;17.412;2023-09-07T02:24:48;12.82;;;6.85;;
73428;SDS011;61643;49.564;17.412;2023-09-07T02:27:14;14.77;;;6.30;;
73428;SDS011;61643;49.564;17.412;2023-09-07T02:29:40;15.48;;;6.43;;
73428;SDS011;61643;49.564;17.412;2023-09-07T02:32:06;12.32;;;5.82;;
73428;SDS011;61643;49.564;17.412;2023-09-07T02:34:32;9.60;;;5.75;;
73428;SDS011;61643;49.564;17.412;2023-09-07T02:37:02;8.52;;;5.47;;
73428;SDS011;61643;49.564;17.412;2023-09-07T02:39:28;10.63;;;5.85;;
73428;SDS011;61643;49.564;17.412;2023-09-07T02:41:54;12.23;;;5.10;;
73428;SDS011;61643;49.564;17.412;2023-09-07T02:44:20;9.57;;;6.00;;
73428;SDS011;61643;49.564;17.412;2023-09-07T02:46:46;10.45;;;5.78;;
73428;SDS011;61643;49.564;17.412;2023-09-07T02:49:12;8.75;;;5.43;;
73428;SDS011;61643;49.564;17.412;2023-09-07T02:51:38;9.55;;;5.22;;
73428;SDS011;61643;49.564;17.412;2023-09-07T02:54:05;8.57;;;5.65;;
73428;SDS011;61643;49.564;17.412;2023-09-07T02:56:31;8.35;;;5.13;;
73428;SDS011;61643;49.564;17.412;2023-09-07T02:58:57;8.05;;;5.57;;
73428;SDS011;61643;49.564;17.412;2023-09-07T03:01:23;10.32;;;5.75;;
73428;SDS011;61643;49.564;17.412;2023-09-07T03:03:49;9.02;;;5.43;;
73428;SDS011;61643;49.564;17.412;2023-09-07T03:06:15;10.13;;;5.80;;
73428;SDS011;61643;49.564;17.412;2023-09-07T03:08:44;9.90;;;5.93;;
73428;SDS011;61643;49.564;17.412;2023-09-07T03:11:10;9.02;;;5.55;;
73428;SDS011;61643;49.564;17.412;2023-09-07T03:13:37;8.98;;;5.57;;
73428;SDS011;61643;49.564;17.412;2023-09-07T03:16:03;13.82;;;6.22;;
73428;SDS011;61643;49.564;17.412;2023-09-07T03:18:30;9.23;;;5.47;;
73428;SDS011;61643;49.564;17.412;2023-09-07T03:21:00;11.13;;;5.97;;
73428;SDS011;61643;49.564;17.412;2023-09-07T03:23:28;10.43;;;6.15;;
73428;SDS011;61643;49.564;17.412;2023-09-07T03:25:56;10.18;;;5.85;;
73428;SDS011;61643;49.564;17.412;2023-09-07T03:28:23;9.32;;;5.90;;
73428;SDS011;61643;49.564;17.412;2023-09-07T03:30:54;10.30;;;5.88;;
73428;SDS011;61643;49.564;17.412;2023-09-07T03:33:21;9.93;;;5.50;;
73428;SDS011;61643;49.564;17.412;2023-09-07T03:35:48;10.15;;;5.80;;
73428;SDS011;61643;49.564;17.412;2023-09-07T03:38:14;9.80;;;5.63;;
73428;SDS011;61643;49.564;17.412;2023-09-07T03:40:40;8.98;;;5.53;;
73428;SDS011;61643;49.564;17.412;2023-09-07T03:43:06;11.25;;;6.13;;
73428;SDS011;61643;49.564;17.412;2023-09-07T03:45:32;8.02;;;5.57;;
73428;SDS011;61643;49.564;17.412;2023-09-07T03:47:58;9.80;;;5.82;;
73428;SDS011;61643;49.564;17.412;2023-09-07T03:50:24;9.65;;;5.57;;
73428;SDS011;61643;49.564;17.412;2023-09-07T03:52:50;10.40;;;6.18;;
73428;SDS011;61643;49.564;17.412;2023-09-07T03:55:16;9.18;;;5.70;;
73428;SDS011;61643;49.564;17.412;2023-09-07T03:57:42;9.35;;;5.65;;
73428;SDS011;61643;49.564;17.412;2023-09-07T04:00:08;10.80;;;5.80;;
73428;SDS011;61643;49.564;17.412;2023-09-07T04:02:35;12.13;;;5.95;;
73428;SDS011;61643;49.564;17.412;2023-09-07T04:05:01;8.52;;;5.40;;
73428;SDS011;61643;49.564;17.412;2023-09-07T04:07:31;8.73;;;5.50;;
73428;SDS011;61643;49.564;17.412;2023-09-07T04:09:57;10.35;;;6.28;;
73428;SDS011;61643;49.564;17.412;2023-09-07T04:12:23;10.25;;;5.50;;
73428;SDS011;61643;49.564;17.412;2023-09-07T04:14:49;12.95;;;6.05;;
73428;SDS011;61643;49.564;17.412;2023-09-07T04:17:15;10.48;;;6.10;;
73428;SDS011;61643;49.564;17.412;2023-09-07T04:19:41;8.80;;;6.22;;
73428;SDS011;61643;49.564;17.412;2023-09-07T04:22:09;13.45;;;6.07;;
73428;SDS011;61643;49.564;17.412;2023-09-07T04:24:36;10.82;;;6.53;;
73428;SDS011;61643;49.564;17.412;2023-09-07T04:27:03;10.07;;;5.93;;
73428;SDS011;61643;49.564;17.412;2023-09-07T04:29:29;9.32;;;6.40;;
73428;SDS011;61643;49.564;17.412;2023-09-07T04:31:55;9.93;;;6.10;;
73428;SDS011;61643;49.564;17.412;2023-09-07T04:34:22;10.65;;;6.53;;
73428;SDS011;61643;49.564;17.412;2023-09-07T04:36:48;9.63;;;6.07;;
73428;SDS011;61643;49.564;17.412;2023-09-07T04:39:14;9.40;;;5.75;;
73428;SDS011;61643;49.564;17.412;2023-09-07T04:41:41;9.73;;;5.93;;
73428;SDS011;61643;49.564;17.412;2023-09-07T04:44:07;10.80;;;7.30;;
73428;SDS011;61643;49.564;17.412;2023-09-07T04:46:33;9.75;;;6.18;;
73428;SDS011;61643;49.564;17.412;2023-09-07T04:48:59;11.38;;;6.60;;
73428;SDS011;61643;49.564;17.412;2023-09-07T04:51:25;9.85;;;6.35;;
73428;SDS011;61643;49.564;17.412;2023-09-07T04:53:51;9.98;;;6.15;;
73428;SDS011;61643;49.564;17.412;2023-09-07T04:56:17;10.57;;;6.70;;
73428;SDS011;61643;49.564;17.412;2023-09-07T04:58:43;8.95;;;6.18;;
73428;SDS011;61643;49.564;17.412;2023-09-07T05:01:11;9.82;;;6.28;;
73428;SDS011;61643;49.564;17.412;2023-09-07T05:03:37;9.50;;;5.80;;
73428;SDS011;61643;49.564;17.412;2023-09-07T05:06:05;12.63;;;6.50;;
73428;SDS011;61643;49.564;17.412;2023-09-07T05:08:32;9.63;;;6.03;;
73428;SDS011;61643;49.564;17.412;2023-09-07T05:10:59;8.90;;;5.68;;
73428;SDS011;61643;49.564;17.412;2023-09-07T05:13:26;10.80;;;6.50;;
73428;SDS011;61643;49.564;17.412;2023-09-07T05:15:53;9.95;;;5.93;;
73428;SDS011;61643;49.564;17.412;2023-09-07T05:18:20;12.82;;;6.13;;
73428;SDS011;61643;49.564;17.412;2023-09-07T05:20:47;8.90;;;5.50;;
73428;SDS011;61643;49.564;17.412;2023-09-07T05:23:19;11.05;;;5.28;;
73428;SDS011;61643;49.564;17.412;2023-09-07T05:25:46;12.25;;;6.07;;
73428;SDS011;61643;49.564;17.412;2023-09-07T05:28:18;7.68;;;5.43;;
73428;SDS011;61643;49.564;17.412;2023-09-07T05:30:46;8.50;;;5.90;;
73428;SDS011;61643;49.564;17.412;2023-09-07T05:33:13;9.02;;;5.72;;
73428;SDS011;61643;49.564;17.412;2023-09-07T05:35:40;10.75;;;5.88;;
73428;SDS011;61643;49.564;17.412;2023-09-07T05:38:07;9.30;;;6.25;;
73428;SDS011;61643;49.564;17.412;2023-09-07T05:40:35;8.82;;;6.30;;
73428;SDS011;61643;49.564;17.412;2023-09-07T05:43:02;10.20;;;6.55;;
73428;SDS011;61643;49.564;17.412;2023-09-07T05:45:34;11.27;;;7.28;;
73428;SDS011;61643;49.564;17.412;2023-09-07T05:48:04;11.35;;;6.68;;
73428;SDS011;61643;49.564;17.412;2023-09-07T05:50:33;12.00;;;7.63;;
73428;SDS011;61643;49.564;17.412;2023-09-07T05:52:59;11.45;;;7.18;;
73428;SDS011;61643;49.564;17.412;2023-09-07T05:55:25;9.77;;;6.63;;
73428;SDS011;61643;49.564;17.412;2023-09-07T05:57:53;11.35;;;7.25;;
73428;SDS011;61643;49.564;17.412;2023-09-07T06:00:20;11.80;;;6.85;;
73428;SDS011;61643;49.564;17.412;2023-09-07T06:02:47;11.75;;;7.15;;
73428;SDS011;61643;49.564;17.412;2023-09-07T06:05:13;10.20;;;6.45;;
73428;SDS011;61643;49.564;17.412;2023-09-07T06:07:39;12.45;;;7.72;;
73428;SDS011;61643;49.564;17.412;2023-09-07T06:10:05;11.90;;;7.28;;
73428;SDS011;61643;49.564;17.412;2023-09-07T06:12:32;12.43;;;7.32;;
73428;SDS011;61643;49.564;17.412;2023-09-07T06:15:02;11.85;;;6.72;;
73428;SDS011;61643;49.564;17.412;2023-09-07T06:17:28;11.88;;;7.03;;
73428;SDS011;61643;49.564;17.412;2023-09-07T06:19:54;10.98;;;6.65;;
73428;SDS011;61643;49.564;17.412;2023-09-07T06:22:21;10.90;;;7.03;;
73428;SDS011;61643;49.564;17.412;2023-09-07T06:24:47;10.25;;;7.10;;
73428;SDS011;61643;49.564;17.412;2023-09-07T06:27:13;9.98;;;6.82;;
73428;SDS011;61643;49.564;17.412;2023-09-07T06:29:39;15.05;;;7.43;;
73428;SDS011;61643;49.564;17.412;2023-09-07T06:32:05;12.75;;;7.47;;
73428;SDS011;61643;49.564;17.412;2023-09-07T06:34:31;12.40;;;6.78;;
73428;SDS011;61643;49.564;17.412;2023-09-07T06:36:57;14.25;;;7.15;;
73428;SDS011;61643;49.564;17.412;2023-09-07T06:39:23;12.68;;;6.95;;
73428;SDS011;61643;49.564;17.412;2023-09-07T06:41:48;10.85;;;6.63;;
73428;SDS011;61643;49.564;17.412;2023-09-07T06:44:14;10.60;;;6.70;;
73428;SDS011;61643;49.564;17.412;2023-09-07T06:46:40;9.25;;;6.50;;
73428;SDS011;61643;49.564;17.412;2023-09-07T06:49:06;13.25;;;6.88;;
73428;SDS011;61643;49.564;17.412;2023-09-07T06:51:33;10.20;;;6.50;;
73428;SDS011;61643;49.564;17.412;2023-09-07T06:53:59;13.23;;;6.40;;
73428;SDS011;61643;49.564;17.412;2023-09-07T06:56:25;9.20;;;6.15;;
73428;SDS011;61643;49.564;17.412;2023-09-07T06:58:52;13.15;;;6.60;;
73428;SDS011;61643;49.564;17.412;2023-09-07T07:01:18;11.23;;;6.82;;
73428;SDS011;61643;49.564;17.412;2023-09-07T07:03:44;12.10;;;6.78;;
73428;SDS011;61643;49.564;17.412;2023-09-07T07:06:11;11.52;;;6.55;;
73428;SDS011;61643;49.564;17.412;2023-09-07T07:08:37;11.50;;;6.03;;
73428;SDS011;61643;49.564;17.412;2023-09-07T07:11:03;10.15;;;6.10;;
73428;SDS011;61643;49.564;17.412;2023-09-07T07:13:29;13.10;;;6.30;;
73428;SDS011;61643;49.564;17.412;2023-09-07T07:15:55;10.23;;;6.22;;
73428;SDS011;61643;49.564;17.412;2023-09-07T07:18:21;10.20;;;6.43;;
73428;SDS011;61643;49.564;17.412;2023-09-07T07:20:48;11.80;;;5.90;;
73428;SDS011;61643;49.564;17.412;2023-09-07T07:23:16;11.88;;;7.03;;
73428;SDS011;61643;49.564;17.412;2023-09-07T07:25:42;10.70;;;6.35;;
73428;SDS011;61643;49.564;17.412;2023-09-07T07:28:08;12.77;;;6.40;;
73428;SDS011;61643;49.564;17.412;2023-09-07T07:30:34;9.98;;;6.03;;
73428;SDS011;61643;49.564;17.412;2023-09-07T07:33:06;9.18;;;6.03;;
73428;SDS011;61643;49.564;17.412;2023-09-07T07:35:35;11.32;;;6.72;;
73428;SDS011;61643;49.564;17.412;2023-09-07T07:38:02;11.23;;;6.28;;
73428;SDS011;61643;49.564;17.412;2023-09-07T07:40:29;10.48;;;6.85;;
73428;SDS011;61643;49.564;17.412;2023-09-07T07:42:56;12.35;;;6.78;;
73428;SDS011;61643;49.564;17.412;2023-09-07T07:45:22;13.38;;;6.25;;
73428;SDS011;61643;49.564;17.412;2023-09-07T07:47:48;12.80;;;6.20;;
73428;SDS011;61643;49.564;17.412;2023-09-07T07:50:15;8.82;;;5.97;;
73428;SDS011;61643;49.564;17.412;2023-09-07T07:52:42;8.73;;;6.28;;
73428;SDS011;61643;49.564;17.412;2023-09-07T07:55:09;8.13;;;5.85;;
73428;SDS011;61643;49.564;17.412;2023-09-07T07:57:35;11.48;;;6.07;;
73428;SDS011;61643;49.564;17.412;2023-09-07T08:00:02;10.23;;;5.82;;
73428;SDS011;61643;49.564;17.412;2023-09-07T08:02:29;10.48;;;6.00;;
73428;SDS011;61643;49.564;17.412;2023-09-07T08:04:56;11.95;;;5.85;;
73428;SDS011;61643;49.564;17.412;2023-09-07T08:07:22;7.82;;;5.50;;
73428;SDS011;61643;49.564;17.412;2023-09-07T08:09:49;8.68;;;6.03;;
73428;SDS011;61643;49.564;17.412;2023-09-07T08:12:33;15.38;;;6.75;;
73428;SDS011;61643;49.564;17.412;2023-09-07T08:14:58;10.05;;;6.07;;
73428;SDS011;61643;49.564;17.412;2023-09-07T08:17:24;7.95;;;5.65;;
73428;SDS011;61643;49.564;17.412;2023-09-07T08:19:51;8.60;;;5.60;;
73428;SDS011;61643;49.564;17.412;2023-09-07T08:22:22;10.80;;;6.03;;
73428;SDS011;61643;49.564;17.412;2023-09-07T08:24:48;10.52;;;6.55;;
73428;SDS011;61643;49.564;17.412;2023-09-07T08:27:16;10.52;;;6.55;;
73428;SDS011;61643;49.564;17.412;2023-09-07T08:29:44;10.55;;;6.20;;
73428;SDS011;61643;49.564;17.412;2023-09-07T08:32:14;11.43;;;7.13;;
73428;SDS011;61643;49.564;17.412;2023-09-07T08:34:39;10.27;;;6.45;;
73428;SDS011;61643;49.564;17.412;2023-09-07T08:37:07;10.13;;;5.85;;
73428;SDS011;61643;49.564;17.412;2023-09-07T08:39:36;9.55;;;6.10;;
73428;SDS011;61643;49.564;17.412;2023-09-07T08:42:04;10.88;;;6.18;;
73428;SDS011;61643;49.564;17.412;2023-09-07T08:44:31;8.75;;;5.82;;
73428;SDS011;61643;49.564;17.412;2023-09-07T08:46:59;10.02;;;6.40;;
73428;SDS011;61643;49.564;17.412;2023-09-07T08:49:27;10.48;;;6.80;;
73428;SDS011;61643;49.564;17.412;2023-09-07T08:51:53;10.88;;;5.90;;
73428;SDS011;61643;49.564;17.412;2023-09-07T08:56:47;14.65;;;6.55;;
73428;SDS011;61643;49.564;17.412;2023-09-07T08:59:14;9.75;;;5.80;;
73428;SDS011;61643;49.564;17.412;2023-09-07T09:01:40;9.45;;;5.93;;
73428;SDS011;61643;49.564;17.412;2023-09-07T09:04:07;13.68;;;5.65;;
73428;SDS011;61643;49.564;17.412;2023-09-07T09:06:33;8.20;;;5.25;;
73428;SDS011;61643;49.564;17.412;2023-09-07T09:08:59;10.63;;;5.05;;
73428;SDS011;61643;49.564;17.412;2023-09-07T09:11:25;9.75;;;6.43;;
73428;SDS011;61643;49.564;17.412;2023-09-07T09:13:53;9.85;;;6.68;;
73428;SDS011;61643;49.564;17.412;2023-09-07T09:16:19;8.05;;;5.82;;
73428;SDS011;61643;49.564;17.412;2023-09-07T09:18:49;9.30;;;5.45;;
73428;SDS011;61643;49.564;17.412;2023-09-07T09:21:21;12.18;;;6.32;;
73428;SDS011;61643;49.564;17.412;2023-09-07T09:23:49;9.52;;;5.68;;
73428;SDS011;61643;49.564;17.412;2023-09-07T09:26:16;8.75;;;5.10;;
73428;SDS011;61643;49.564;17.412;2023-09-07T09:28:43;9.93;;;6.65;;
73428;SDS011;61643;49.564;17.412;2023-09-07T09:31:12;11.48;;;6.22;;
73428;SDS011;61643;49.564;17.412;2023-09-07T09:33:39;13.68;;;6.75;;
73428;SDS011;61643;49.564;17.412;2023-09-07T09:36:06;13.10;;;6.80;;
73428;SDS011;61643;49.564;17.412;2023-09-07T09:38:34;13.00;;;7.03;;
73428;SDS011;61643;49.564;17.412;2023-09-07T09:41:01;12.68;;;6.85;;
73428;SDS011;61643;49.564;17.412;2023-09-07T09:43:28;12.95;;;6.45;;
73428;SDS011;61643;49.564;17.412;2023-09-07T09:45:55;10.98;;;6.85;;
73428;SDS011;61643;49.564;17.412;2023-09-07T09:48:22;9.88;;;6.03;;
73428;SDS011;61643;49.564;17.412;2023-09-07T09:50:49;9.20;;;6.43;;
73428;SDS011;61643;49.564;17.412;2023-09-07T09:55:44;12.25;;;6.30;;
73428;SDS011;61643;49.564;17.412;2023-09-07T10:00:38;11.00;;;6.32;;
73428;SDS011;61643;49.564;17.412;2023-09-07T10:03:15;9.63;;;6.10;;
73428;SDS011;61643;49.564;17.412;2023-09-07T10:05:48;10.02;;;6.30;;
73428;SDS011;61643;49.564;17.412;2023-09-07T10:08:15;11.43;;;6.53;;
73428;SDS011;61643;49.564;17.412;2023-09-07T10:10:43;9.68;;;6.15;;
73428;SDS011;61643;49.564;17.412;2023-09-07T10:13:15;9.40;;;6.20;;
73428;SDS011;61643;49.564;17.412;2023-09-07T10:15:42;11.30;;;6.25;;
73428;SDS011;61643;49.564;17.412;2023-09-07T10:18:09;14.18;;;6.75;;
73428;SDS011;61643;49.564;17.412;2023-09-07T10:20:49;10.48;;;6.25;;
73428;SDS011;61643;49.564;17.412;2023-09-07T10:23:15;11.68;;;6.90;;
73428;SDS011;61643;49.564;17.412;2023-09-07T10:25:41;12.73;;;6.75;;
73428;SDS011;61643;49.564;17.412;2023-09-07T10:28:29;10.65;;;6.47;;
73428;SDS011;61643;49.564;17.412;2023-09-07T10:31:04;13.20;;;5.90;;
73428;SDS011;61643;49.564;17.412;2023-09-07T10:33:38;12.30;;;6.93;;
73428;SDS011;61643;49.564;17.412;2023-09-07T10:36:04;8.52;;;5.78;;
73428;SDS011;61643;49.564;17.412;2023-09-07T10:38:32;8.60;;;5.40;;
73428;SDS011;61643;49.564;17.412;2023-09-07T10:40:59;11.60;;;5.85;;
73428;SDS011;61643;49.564;17.412;2023-09-07T10:45:56;8.15;;;5.63;;
73428;SDS011;61643;49.564;17.412;2023-09-07T10:48:24;10.68;;;5.30;;
73428;SDS011;61643;49.564;17.412;2023-09-07T10:50:51;6.78;;;4.95;;
73428;SDS011;61643;49.564;17.412;2023-09-07T10:53:24;11.43;;;5.60;;
73428;SDS011;61643;49.564;17.412;2023-09-07T10:55:52;9.50;;;5.53;;
73428;SDS011;61643;49.564;17.412;2023-09-07T10:58:24;10.70;;;6.00;;
73428;SDS011;61643;49.564;17.412;2023-09-07T11:00:53;9.05;;;5.32;;
73428;SDS011;61643;49.564;17.412;2023-09-07T11:03:19;7.50;;;5.07;;
73428;SDS011;61643;49.564;17.412;2023-09-07T11:05:45;7.57;;;5.25;;
73428;SDS011;61643;49.564;17.412;2023-09-07T11:08:11;7.57;;;5.20;;
73428;SDS011;61643;49.564;17.412;2023-09-07T11:10:38;7.15;;;4.95;;
73428;SDS011;61643;49.564;17.412;2023-09-07T11:13:04;7.65;;;5.10;;
73428;SDS011;61643;49.564;17.412;2023-09-07T11:15:31;7.30;;;5.15;;
73428;SDS011;61643;49.564;17.412;2023-09-07T11:18:05;9.48;;;5.38;;
73428;SDS011;61643;49.564;17.412;2023-09-07T11:20:33;8.63;;;5.80;;
73428;SDS011;61643;49.564;17.412;2023-09-07T11:23:00;8.45;;;5.70;;
73428;SDS011;61643;49.564;17.412;2023-09-07T11:25:26;8.80;;;6.00;;
73428;SDS011;61643;49.564;17.412;2023-09-07T11:27:52;10.13;;;5.60;;
73428;SDS011;61643;49.564;17.412;2023-09-07T11:30:20;7.65;;;5.10;;
73428;SDS011;61643;49.564;17.412;2023-09-07T11:32:47;11.52;;;5.82;;
73428;SDS011;61643;49.564;17.412;2023-09-07T11:35:13;8.27;;;5.60;;
73428;SDS011;61643;49.564;17.412;2023-09-07T11:37:39;9.43;;;5.35;;
73428;SDS011;61643;49.564;17.412;2023-09-07T11:40:06;9.63;;;5.45;;
73428;SDS011;61643;49.564;17.412;2023-09-07T11:42:38;10.63;;;5.35;;
73428;SDS011;61643;49.564;17.412;2023-09-07T11:45:07;8.82;;;5.50;;
73428;SDS011;61643;49.564;17.412;2023-09-07T11:47:34;7.15;;;4.82;;
73428;SDS011;61643;49.564;17.412;2023-09-07T11:50:01;7.28;;;5.15;;
73428;SDS011;61643;49.564;17.412;2023-09-07T11:52:27;7.13;;;4.80;;
73428;SDS011;61643;49.564;17.412;2023-09-07T11:54:53;6.28;;;4.55;;
73428;SDS011;61643;49.564;17.412;2023-09-07T11:57:19;9.65;;;4.68;;
73428;SDS011;61643;49.564;17.412;2023-09-07T11:59:45;6.80;;;4.85;;
73428;SDS011;61643;49.564;17.412;2023-09-07T12:02:11;6.30;;;4.93;;
73428;SDS011;61643;49.564;17.412;2023-09-07T12:04:40;10.57;;;5.50;;
73428;SDS011;61643;49.564;17.412;2023-09-07T12:07:06;10.70;;;5.03;;
73428;SDS011;61643;49.564;17.412;2023-09-07T12:09:32;8.88;;;4.82;;
73428;SDS011;61643;49.564;17.412;2023-09-07T12:11:58;9.23;;;4.70;;
73428;SDS011;61643;49.564;17.412;2023-09-07T12:14:24;7.65;;;4.60;;
73428;SDS011;61643;49.564;17.412;2023-09-07T12:16:50;6.60;;;4.80;;
73428;SDS011;61643;49.564;17.412;2023-09-07T12:19:16;6.00;;;4.50;;
73428;SDS011;61643;49.564;17.412;2023-09-07T12:21:42;7.93;;;4.70;;
73428;SDS011;61643;49.564;17.412;2023-09-07T12:24:08;5.40;;;3.13;;
73428;SDS011;61643;49.564;17.412;2023-09-07T12:26:34;5.15;;;2.80;;
73428;SDS011;61643;49.564;17.412;2023-09-07T12:29:00;5.90;;;3.10;;
73428;SDS011;61643;49.564;17.412;2023-09-07T12:31:26;4.20;;;2.60;;
73428;SDS011;61643;49.564;17.412;2023-09-07T12:33:52;4.82;;;3.25;;
73428;SDS011;61643;49.564;17.412;2023-09-07T12:36:18;4.85;;;3.33;;
73428;SDS011;61643;49.564;17.412;2023-09-07T12:38:47;4.15;;;2.90;;
73428;SDS011;61643;49.564;17.412;2023-09-07T12:41:12;5.50;;;3.17;;
73428;SDS011;61643;49.564;17.412;2023-09-07T12:43:39;7.22;;;3.08;;
73428;SDS011;61643;49.564;17.412;2023-09-07T12:46:05;4.47;;;3.30;;
73428;SDS011;61643;49.564;17.412;2023-09-07T12:48:31;6.25;;;2.90;;
73428;SDS011;61643;49.564;17.412;2023-09-07T12:50:56;5.07;;;2.70;;
73428;SDS011;61643;49.564;17.412;2023-09-07T12:53:22;4.75;;;2.80;;
73428;SDS011;61643;49.564;17.412;2023-09-07T12:55:51;5.30;;;2.55;;
73428;SDS011;61643;49.564;17.412;2023-09-07T12:58:18;3.00;;;2.28;;
73428;SDS011;61643;49.564;17.412;2023-09-07T13:00:44;5.70;;;2.28;;
73428;SDS011;61643;49.564;17.412;2023-09-07T13:03:10;5.50;;;2.40;;
73428;SDS011;61643;49.564;17.412;2023-09-07T13:05:38;3.55;;;2.30;;
73428;SDS011;61643;49.564;17.412;2023-09-07T13:08:04;2.22;;;2.03;;
73428;SDS011;61643;49.564;17.412;2023-09-07T13:10:30;4.50;;;2.50;;
73428;SDS011;61643;49.564;17.412;2023-09-07T13:12:56;4.22;;;2.40;;
73428;SDS011;61643;49.564;17.412;2023-09-07T13:15:22;4.22;;;2.50;;
73428;SDS011;61643;49.564;17.412;2023-09-07T13:17:48;4.15;;;2.72;;
73428;SDS011;61643;49.564;17.412;2023-09-07T13:20:14;3.45;;;2.25;;
73428;SDS011;61643;49.564;17.412;2023-09-07T13:22:40;5.50;;;2.70;;
73428;SDS011;61643;49.564;17.412;2023-09-07T13:25:06;4.13;;;2.25;;
73428;SDS011;61643;49.564;17.412;2023-09-07T13:27:32;3.88;;;2.83;;
73428;SDS011;61643;49.564;17.412;2023-09-07T13:29:58;4.28;;;2.40;;
73428;SDS011;61643;49.564;17.412;2023-09-07T13:32:24;6.93;;;2.45;;
73428;SDS011;61643;49.564;17.412;2023-09-07T13:34:50;5.97;;;3.15;;
73428;SDS011;61643;49.564;17.412;2023-09-07T13:37:16;5.50;;;3.33;;
73428;SDS011;61643;49.564;17.412;2023-09-07T13:39:42;5.35;;;3.28;;
73428;SDS011;61643;49.564;17.412;2023-09-07T13:42:08;5.38;;;3.60;;
73428;SDS011;61643;49.564;17.412;2023-09-07T13:44:34;14.88;;;3.45;;
73428;SDS011;61643;49.564;17.412;2023-09-07T13:47:00;4.85;;;3.45;;
73428;SDS011;61643;49.564;17.412;2023-09-07T13:49:26;8.45;;;3.30;;
73428;SDS011;61643;49.564;17.412;2023-09-07T13:51:52;6.63;;;3.17;;
73428;SDS011;61643;49.564;17.412;2023-09-07T13:54:18;5.05;;;3.42;;
73428;SDS011;61643;49.564;17.412;2023-09-07T13:56:44;9.60;;;3.75;;
73428;SDS011;61643;49.564;17.412;2023-09-07T13:59:12;5.25;;;3.97;;
73428;SDS011;61643;49.564;17.412;2023-09-07T14:01:38;6.32;;;3.75;;
73428;SDS011;61643;49.564;17.412;2023-09-07T14:04:04;6.20;;;3.47;;
73428;SDS011;61643;49.564;17.412;2023-09-07T14:06:30;7.20;;;3.63;;
73428;SDS011;61643;49.564;17.412;2023-09-07T14:08:57;6.40;;;3.63;;
73428;SDS011;61643;49.564;17.412;2023-09-07T14:11:23;5.32;;;3.45;;
73428;SDS011;61643;49.564;17.412;2023-09-07T14:13:49;5.72;;;3.35;;
73428;SDS011;61643;49.564;17.412;2023-09-07T14:16:20;6.45;;;3.33;;
73428;SDS011;61643;49.564;17.412;2023-09-07T14:18:46;6.50;;;3.70;;
73428;SDS011;61643;49.564;17.412;2023-09-07T14:21:14;4.10;;;2.88;;
73428;SDS011;61643;49.564;17.412;2023-09-07T14:23:40;6.72;;;3.95;;
73428;SDS011;61643;49.564;17.412;2023-09-07T14:28:34;5.80;;;3.30;;
73428;SDS011;61643;49.564;17.412;2023-09-07T14:31:00;4.57;;;2.92;;
73428;SDS011;61643;49.564;17.412;2023-09-07T14:33:29;6.57;;;3.53;;
73428;SDS011;61643;49.564;17.412;2023-09-07T14:35:56;5.75;;;3.20;;
73428;SDS011;61643;49.564;17.412;2023-09-07T14:38:21;6.45;;;3.25;;
73428;SDS011;61643;49.564;17.412;2023-09-07T14:40:49;12.68;;;3.60;;